Time,TemperatureF,DewpointF,PressureIn,WindDirection,WindDirectionDegrees,WindSpeedMPH,WindSpeedGustMPH,Humidity,HourlyPrecipIn,Conditions,Clouds,dailyrainin,SoftwareType,DateUTC
2013-01-20 00:12:00,47.0,29.0,29.94,SSW,192,10.0,16.0,50,0.00,,,0.00,weatherlink.com 1.10,2013-01-20 05:12:00,
2013-01-20 00:27:00,46.9,29.0,29.94,South,182,7.0,15.0,51,0.00,,,0.00,weatherlink.com 1.10,2013-01-20 05:27:00,
2013-01-20 00:42:00,46.7,29.0,29.93,South,182,9.0,13.0,51,0.00,,,0.00,weatherlink.com 1.10,2013-01-20 05:42:00,
2013-01-20 00:57:00,46.7,30.0,29.94,South,178,2.0,13.0,52,0.00,,,0.00,weatherlink.com 1.10,2013-01-20 05:57:00,
2013-01-20 01:12:00,46.4,30.0,29.93,SSE,150,5.0,7.0,53,0.00,,,0.00,weatherlink.com 1.10,2013-01-20 06:12:00,
2013-01-20 01:27:00,46.4,30.0,29.93,SSE,167,4.0,9.0,54,0.00,,,0.00,weatherlink.com 1.10,2013-01-20 06:27:00,
2013-01-20 01:42:00,46.5,30.0,29.94,SSE,155,2.0,14.0,54,0.00,,,0.00,weatherlink.com 1.10,2013-01-20 06:42:00,
2013-01-20 01:57:00,46.3,31.0,29.94,SSW,193,4.0,8.0,56,0.00,,,0.00,weatherlink.com 1.10,2013-01-20 06:57:00,
2013-01-20 02:12:00,46.2,32.0,29.94,South,180,4.0,17.0,57,0.00,,,0.00,weatherlink.com 1.10,2013-01-20 07:12:00,
2013-01-20 02:27:00,46.3,32.0,29.95,South,184,3.0,9.0,58,0.00,,,0.00,weatherlink.com 1.10,2013-01-20 07:27:00,
2013-01-20 02:42:00,46.2,32.0,29.95,South,191,5.0,12.0,59,0.00,,,0.00,weatherlink.com 1.10,2013-01-20 07:42:00,
2013-01-20 02:57:00,46.1,33.0,29.95,South,173,2.0,12.0,61,0.00,,,0.00,weatherlink.com 1.10,2013-01-20 07:57:00,
2013-01-20 03:12:00,46.0,33.0,29.96,SSW,196,5.0,13.0,62,0.00,,,0.00,weatherlink.com 1.10,2013-01-20 08:12:00,
2013-01-20 03:27:00,45.7,34.0,29.97,SW,214,9.0,10.0,64,0.00,,,0.00,weatherlink.com 1.10,2013-01-20 08:27:00,
2013-01-20 03:42:00,45.6,34.0,29.98,South,190,6.0,8.0,65,0.00,,,0.00,weatherlink.com 1.10,2013-01-20 08:42:00,
2013-01-20 03:57:00,45.5,35.0,29.99,South,182,4.0,9.0,66,0.00,,,0.00,weatherlink.com 1.10,2013-01-20 08:57:00,
2013-01-20 04:12:00,45.6,35.0,30.00,NW,314,3.0,12.0,66,0.00,,,0.00,weatherlink.com 1.10,2013-01-20 09:12:00,
2013-01-20 04:28:00,45.1,33.0,30.00,West,281,10.0,20.0,63,0.00,,,0.00,weatherlink.com 1.10,2013-01-20 09:28:00,
2013-01-20 04:43:00,44.3,32.0,30.01,South,191,2.0,21.0,63,0.00,,,0.00,weatherlink.com 1.10,2013-01-20 09:43:00,
2013-01-20 04:58:00,43.7,32.0,30.02,North,351,7.0,14.0,64,0.00,,,0.00,weatherlink.com 1.10,2013-01-20 09:58:00,
2013-01-20 05:13:00,43.3,31.0,30.02,WNW,284,6.0,13.0,63,0.00,,,0.00,weatherlink.com 1.10,2013-01-20 10:13:00,
2013-01-20 05:28:00,43.0,31.0,30.02,West,277,2.0,11.0,63,0.00,,,0.00,weatherlink.com 1.10,2013-01-20 10:28:00,
2013-01-20 05:43:00,42.4,30.0,30.03,West,273,2.0,11.0,63,0.00,,,0.00,weatherlink.com 1.10,2013-01-20 10:43:00,
2013-01-20 05:58:00,41.6,30.0,30.04,WSW,241,5.0,12.0,63,0.00,,,0.00,weatherlink.com 1.10,2013-01-20 10:58:00,
2013-01-20 06:13:00,40.5,27.0,30.05,SSW,205,7.0,14.0,59,0.00,,,0.00,weatherlink.com 1.10,2013-01-20 11:13:00,
2013-01-20 06:28:00,39.2,24.0,30.07,WSW,257,5.0,17.0,54,0.00,,,0.00,weatherlink.com 1.10,2013-01-20 11:28:00,
2013-01-20 06:43:00,37.7,20.0,30.08,WSW,250,9.0,14.0,50,0.00,,,0.00,weatherlink.com 1.10,2013-01-20 11:43:00,
2013-01-20 06:58:00,36.7,18.0,30.08,SSW,202,4.0,10.0,46,0.00,,,0.00,weatherlink.com 1.10,2013-01-20 11:58:00,
2013-01-20 07:13:00,36.2,15.0,30.09,WNW,290,1.0,8.0,42,0.00,,,0.00,weatherlink.com 1.10,2013-01-20 12:13:00,
2013-01-20 07:28:00,35.5,14.0,30.11,West,264,2.0,11.0,41,0.00,,,0.00,weatherlink.com 1.10,2013-01-20 12:28:00,
2013-01-20 07:43:00,34.8,14.0,30.11,SSW,211,8.0,9.0,42,0.00,,,0.00,weatherlink.com 1.10,2013-01-20 12:43:00,
2013-01-20 07:58:00,34.0,11.0,30.12,West,273,6.0,14.0,39,0.00,,,0.00,weatherlink.com 1.10,2013-01-20 12:58:00,
2013-01-20 08:13:00,33.4,11.0,30.13,WSW,257,5.0,10.0,40,0.00,,,0.00,weatherlink.com 1.10,2013-01-20 13:13:00,
2013-01-20 08:28:00,32.9,12.0,30.14,SW,232,8.0,13.0,42,0.00,,,0.00,weatherlink.com 1.10,2013-01-20 13:28:00,
2013-01-20 08:44:00,32.1,10.0,30.15,SW,231,4.0,13.0,39,0.00,,,0.00,weatherlink.com 1.10,2013-01-20 13:44:00,
2013-01-20 08:59:00,31.7,9.0,30.16,SW,216,5.0,22.0,39,0.00,,,0.00,weatherlink.com 1.10,2013-01-20 13:59:00,
2013-01-20 09:14:00,31.8,10.0,30.17,WSW,257,3.0,12.0,41,0.00,,,0.00,weatherlink.com 1.10,2013-01-20 14:14:00,
2013-01-20 09:29:00,31.7,11.0,30.18,South,189,6.0,13.0,43,0.00,,,0.00,weatherlink.com 1.10,2013-01-20 14:29:00,
2013-01-20 09:44:00,31.2,11.0,30.20,WNW,292,10.0,13.0,43,0.00,,,0.00,weatherlink.com 1.10,2013-01-20 14:44:00,
2013-01-20 09:59:00,31.2,10.0,30.20,West,275,12.0,12.0,42,0.00,,,0.00,weatherlink.com 1.10,2013-01-20 14:59:00,
2013-01-20 10:14:00,31.6,10.0,30.21,NNW,343,5.0,9.0,41,0.00,,,0.00,weatherlink.com 1.10,2013-01-20 15:14:00,
2013-01-20 10:29:00,31.8,11.0,30.22,NNW,336,4.0,10.0,42,0.00,,,0.00,weatherlink.com 1.10,2013-01-20 15:29:00,
2013-01-20 10:44:00,32.3,11.0,30.23,North,355,8.0,10.0,42,0.00,,,0.00,weatherlink.com 1.10,2013-01-20 15:44:00,
2013-01-20 10:59:00,32.4,10.0,30.23,NW,323,2.0,12.0,39,0.00,,,0.00,weatherlink.com 1.10,2013-01-20 15:59:00,
2013-01-20 11:14:00,32.3,10.0,30.23,West,269,5.0,11.0,40,0.00,,,0.00,weatherlink.com 1.10,2013-01-20 16:14:00,
2013-01-20 11:29:00,32.8,11.0,30.23,South,188,3.0,9.0,41,0.00,,,0.00,weatherlink.com 1.10,2013-01-20 16:29:00,
2013-01-20 11:44:00,33.0,12.0,30.23,NW,325,4.0,10.0,41,0.00,,,0.00,weatherlink.com 1.10,2013-01-20 16:44:00,
2013-01-20 11:59:00,33.3,12.0,30.23,WSW,252,1.0,9.0,41,0.00,,,0.00,weatherlink.com 1.10,2013-01-20 16:59:00,
2013-01-20 12:14:00,33.4,12.0,30.22,SSW,206,5.0,7.0,42,0.00,,,0.00,weatherlink.com 1.10,2013-01-20 17:14:00,
2013-01-20 12:29:00,34.1,13.0,30.21,West,267,4.0,8.0,41,0.00,,,0.00,weatherlink.com 1.10,2013-01-20 17:29:00,
2013-01-20 12:44:00,34.5,12.0,30.21,WNW,299,4.0,6.0,39,0.00,,,0.00,weatherlink.com 1.10,2013-01-20 17:44:00,
2013-01-20 12:59:00,34.5,12.0,30.22,WSW,248,6.0,7.0,40,0.00,,,0.00,weatherlink.com 1.10,2013-01-20 17:59:00,
2013-01-20 13:14:00,35.4,13.0,30.20,NW,306,4.0,7.0,40,0.00,,,0.00,weatherlink.com 1.10,2013-01-20 18:14:00,
2013-01-20 13:29:00,34.7,12.0,30.16,SW,230,4.0,8.0,39,0.00,,,0.00,weatherlink.com 1.10,2013-01-20 18:29:00,
2013-01-20 13:44:00,35.5,10.0,30.15,SW,229,2.0,7.0,35,0.00,,,0.00,weatherlink.com 1.10,2013-01-20 18:44:00,
2013-01-20 13:59:00,35.6,10.0,30.17,SW,219,4.0,10.0,34,0.00,,,0.00,weatherlink.com 1.10,2013-01-20 18:59:00,
2013-01-20 14:14:00,36.0,11.0,30.16,NW,321,1.0,5.0,35,0.00,,,0.00,weatherlink.com 1.10,2013-01-20 19:14:00,
2013-01-20 14:29:00,35.7,10.0,30.17,SSW,208,4.0,7.0,35,0.00,,,0.00,weatherlink.com 1.10,2013-01-20 19:29:00,
2013-01-20 14:44:00,36.4,11.0,30.12,West,279,2.0,9.0,35,0.00,,,0.00,weatherlink.com 1.10,2013-01-20 19:44:00,
2013-01-20 14:59:00,37.0,12.0,30.16,SW,224,6.0,6.0,36,0.00,,,0.00,weatherlink.com 1.10,2013-01-20 19:59:00,
2013-01-20 15:14:00,36.8,12.0,30.18,SW,226,6.0,8.0,36,0.00,,,0.00,weatherlink.com 1.10,2013-01-20 20:14:00,
2013-01-20 15:29:00,37.0,12.0,30.12,SSW,198,0.0,9.0,36,0.00,,,0.00,weatherlink.com 1.10,2013-01-20 20:29:00,
2013-01-20 15:44:00,37.2,10.0,30.18,West,267,5.0,7.0,33,0.00,,,0.00,weatherlink.com 1.10,2013-01-20 20:44:00,
2013-01-20 15:59:00,36.2,9.0,30.18,SSW,211,2.0,10.0,32,0.00,,,0.00,weatherlink.com 1.10,2013-01-20 20:59:00,
2013-01-20 16:14:00,36.0,8.0,30.18,SW,227,5.0,10.0,31,0.00,,,0.00,weatherlink.com 1.10,2013-01-20 21:14:00,
2013-01-20 16:30:00,35.7,8.0,30.17,SW,234,6.0,8.0,32,0.00,,,0.00,weatherlink.com 1.10,2013-01-20 21:30:00,
2013-01-20 16:45:00,36.3,10.0,30.18,WSW,254,4.0,6.0,33,0.00,,,0.00,weatherlink.com 1.10,2013-01-20 21:45:00,
2013-01-20 17:00:00,36.1,10.0,30.19,WNW,291,4.0,7.0,34,0.00,,,0.00,weatherlink.com 1.10,2013-01-20 22:00:00,
2013-01-20 17:15:00,35.5,11.0,30.19,SW,232,5.0,8.0,36,0.00,,,0.00,weatherlink.com 1.10,2013-01-20 22:15:00,
2013-01-20 17:30:00,35.1,11.0,30.20,SSW,194,3.0,9.0,37,0.00,,,0.00,weatherlink.com 1.10,2013-01-20 22:30:00,
2013-01-20 17:45:00,34.3,10.0,30.21,SSW,200,1.0,8.0,37,0.00,,,0.00,weatherlink.com 1.10,2013-01-20 22:45:00,
2013-01-20 18:00:00,33.9,11.0,30.22,WSW,245,6.0,7.0,38,0.00,,,0.00,weatherlink.com 1.10,2013-01-20 23:00:00,
2013-01-20 18:15:00,33.9,11.0,30.22,West,265,6.0,7.0,39,0.00,,,0.00,weatherlink.com 1.10,2013-01-20 23:15:00,
2013-01-20 18:30:00,33.5,11.0,30.22,WSW,257,3.0,11.0,39,0.00,,,0.00,weatherlink.com 1.10,2013-01-20 23:30:00,
2013-01-20 18:45:00,33.3,12.0,30.21,SW,229,5.0,10.0,41,0.00,,,0.00,weatherlink.com 1.10,2013-01-20 23:45:00,
2013-01-20 19:00:00,33.0,13.0,30.21,South,188,4.0,9.0,43,0.00,,,0.00,weatherlink.com 1.10,2013-01-21 00:00:00,
2013-01-20 19:15:00,32.9,12.0,30.21,SW,231,1.0,6.0,43,0.00,,,0.00,weatherlink.com 1.10,2013-01-21 00:15:00,
2013-01-20 19:30:00,32.7,11.0,30.21,WSW,244,3.0,6.0,41,0.00,,,0.00,weatherlink.com 1.10,2013-01-21 00:30:00,
2013-01-20 19:45:00,32.3,11.0,30.20,WNW,284,1.0,6.0,42,0.00,,,0.00,weatherlink.com 1.10,2013-01-21 00:45:00,
2013-01-20 20:00:00,32.3,12.0,30.20,West,271,2.0,7.0,43,0.00,,,0.00,weatherlink.com 1.10,2013-01-21 01:00:00,
2013-01-20 20:15:00,31.9,12.0,30.20,WSW,253,4.0,7.0,43,0.00,,,0.00,weatherlink.com 1.10,2013-01-21 01:15:00,
2013-01-20 20:30:00,31.6,11.0,30.20,SSW,207,0.0,9.0,42,0.00,,,0.00,weatherlink.com 1.10,2013-01-21 01:30:00,
2013-01-20 20:45:00,31.5,11.0,30.20,West,270,1.0,5.0,42,0.00,,,0.00,weatherlink.com 1.10,2013-01-21 01:45:00,
2013-01-20 21:00:00,31.2,11.0,30.20,NW,305,3.0,7.0,43,0.00,,,0.00,weatherlink.com 1.10,2013-01-21 02:00:00,
2013-01-20 21:15:00,30.8,11.0,30.20,West,280,3.0,5.0,44,0.00,,,0.00,weatherlink.com 1.10,2013-01-21 02:15:00,
2013-01-20 21:30:00,30.7,11.0,30.20,NW,308,4.0,6.0,44,0.00,,,0.00,weatherlink.com 1.10,2013-01-21 02:30:00,
2013-01-20 21:45:00,30.3,12.0,30.20,West,269,1.0,5.0,46,0.00,,,0.00,weatherlink.com 1.10,2013-01-21 02:45:00,
2013-01-20 22:00:00,29.8,10.0,30.20,NW,305,2.0,8.0,44,0.00,,,0.00,weatherlink.com 1.10,2013-01-21 03:00:00,
2013-01-20 22:15:00,29.7,11.0,30.20,WSW,258,0.0,5.0,46,0.00,,,0.00,weatherlink.com 1.10,2013-01-21 03:15:00,
2013-01-20 22:30:00,29.6,12.0,30.20,West,271,2.0,4.0,48,0.00,,,0.00,weatherlink.com 1.10,2013-01-21 03:30:00,
2013-01-20 22:45:00,29.2,12.0,30.19,WNW,282,4.0,6.0,48,0.00,,,0.00,weatherlink.com 1.10,2013-01-21 03:45:00,
2013-01-20 23:00:00,29.1,11.0,30.20,NNW,333,2.0,6.0,46,0.00,,,0.00,weatherlink.com 1.10,2013-01-21 04:00:00,
2013-01-20 23:15:00,29.1,11.0,30.19,NW,323,5.0,6.0,47,0.00,,,0.00,weatherlink.com 1.10,2013-01-21 04:15:00,
2013-01-20 23:30:00,28.9,11.0,30.19,NW,306,3.0,8.0,47,0.00,,,0.00,weatherlink.com 1.10,2013-01-21 04:30:00,
2013-01-20 23:45:00,28.9,11.0,30.19,NNW,336,4.0,8.0,48,0.00,,,0.00,weatherlink.com 1.10,2013-01-21 04:45:00,